sensor_id;sensor_type;location;lat;lon;timestamp;pressure;altitude;pressure_sealevel;temperature;humidity
27840;BME280;15207;42.182;24.308;2022-10-31T00:02:19;99503.16;;;15.69;61.49
27840;BME280;15207;42.182;24.308;2022-10-31T00:04:45;99507.91;;;15.85;60.99
27840;BME280;15207;42.182;24.308;2022-10-31T00:07:11;99505.44;;;15.92;60.30
27840;BME280;15207;42.182;24.308;2022-10-31T00:09:36;99499.31;;;15.99;59.65
27840;BME280;15207;42.182;24.308;2022-10-31T00:12:02;99494.84;;;16.08;59.42
27840;BME280;15207;42.182;24.308;2022-10-31T00:14:27;99497.63;;;16.17;59.01
27840;BME280;15207;42.182;24.308;2022-10-31T00:16:53;99504.97;;;16.24;57.97
27840;BME280;15207;42.182;24.308;2022-10-31T00:19:19;99492.88;;;16.29;57.51
27840;BME280;15207;42.182;24.308;2022-10-31T00:21:44;99504.19;;;16.32;57.04
27840;BME280;15207;42.182;24.308;2022-10-31T00:24:10;99494.09;;;16.34;56.79
27840;BME280;15207;42.182;24.308;2022-10-31T00:26:36;99499.50;;;16.34;56.95
27840;BME280;15207;42.182;24.308;2022-10-31T00:29:02;99497.63;;;16.35;57.00
27840;BME280;15207;42.182;24.308;2022-10-31T00:31:28;99491.78;;;16.39;56.61
27840;BME280;15207;42.182;24.308;2022-10-31T00:33:53;99498.25;;;16.47;56.52
27840;BME280;15207;42.182;24.308;2022-10-31T00:36:19;99503.66;;;16.47;56.56
27840;BME280;15207;42.182;24.308;2022-10-31T00:38:47;99497.47;;;16.55;56.09
27840;BME280;15207;42.182;24.308;2022-10-31T00:41:14;99497.03;;;16.59;56.07
27840;BME280;15207;42.182;24.308;2022-10-31T00:43:41;99492.91;;;16.73;55.20
27840;BME280;15207;42.182;24.308;2022-10-31T00:46:07;99494.91;;;16.71;55.10
27840;BME280;15207;42.182;24.308;2022-10-31T00:48:33;99496.25;;;16.67;55.45
27840;BME280;15207;42.182;24.308;2022-10-31T00:50:58;99504.50;;;16.65;56.26
27840;BME280;15207;42.182;24.308;2022-10-31T00:53:24;99501.66;;;16.67;56.18
27840;BME280;15207;42.182;24.308;2022-10-31T00:55:50;99490.06;;;16.75;55.62
27840;BME280;15207;42.182;24.308;2022-10-31T00:58:15;99495.13;;;16.78;55.79
27840;BME280;15207;42.182;24.308;2022-10-31T01:00:42;99490.25;;;16.82;56.01
27840;BME280;15207;42.182;24.308;2022-10-31T01:03:07;99489.41;;;16.81;55.64
27840;BME280;15207;42.182;24.308;2022-10-31T01:05:33;99493.81;;;16.82;55.89
27840;BME280;15207;42.182;24.308;2022-10-31T01:07:58;99495.56;;;16.91;54.89
27840;BME280;15207;42.182;24.308;2022-10-31T01:10:24;99491.72;;;16.94;54.98
27840;BME280;15207;42.182;24.308;2022-10-31T01:12:50;99493.56;;;16.93;54.71
27840;BME280;15207;42.182;24.308;2022-10-31T01:15:17;99498.16;;;17.01;53.81
27840;BME280;15207;42.182;24.308;2022-10-31T01:17:43;99501.66;;;16.93;53.88
27840;BME280;15207;42.182;24.308;2022-10-31T01:20:10;99504.84;;;16.89;54.42
27840;BME280;15207;42.182;24.308;2022-10-31T01:22:36;99499.44;;;16.89;54.60
27840;BME280;15207;42.182;24.308;2022-10-31T01:25:02;99496.91;;;16.87;55.17
27840;BME280;15207;42.182;24.308;2022-10-31T01:27:28;99494.34;;;16.86;54.17
27840;BME280;15207;42.182;24.308;2022-10-31T01:29:53;99501.28;;;16.88;54.26
27840;BME280;15207;42.182;24.308;2022-10-31T01:32:19;99490.97;;;16.84;54.08
27840;BME280;15207;42.182;24.308;2022-10-31T01:34:45;99494.81;;;16.81;54.12
27840;BME280;15207;42.182;24.308;2022-10-31T01:37:10;99496.44;;;16.74;54.56
27840;BME280;15207;42.182;24.308;2022-10-31T01:39:36;99492.75;;;16.75;55.02
27840;BME280;15207;42.182;24.308;2022-10-31T01:42:02;99491.59;;;16.77;54.77
27840;BME280;15207;42.182;24.308;2022-10-31T01:47:14;99492.19;;;16.71;55.12
27840;BME280;15207;42.182;24.308;2022-10-31T01:49:49;99499.16;;;16.74;55.00
27840;BME280;15207;42.182;24.308;2022-10-31T01:54:59;99497.19;;;16.58;55.02
27840;BME280;15207;42.182;24.308;2022-10-31T01:57:27;99500.66;;;16.68;53.85
27840;BME280;15207;42.182;24.308;2022-10-31T01:59:55;99495.38;;;16.66;53.86
27840;BME280;15207;42.182;24.308;2022-10-31T02:02:22;99491.53;;;16.69;53.40
27840;BME280;15207;42.182;24.308;2022-10-31T02:04:49;99491.59;;;16.77;53.16
27840;BME280;15207;42.182;24.308;2022-10-31T02:07:23;99483.06;;;16.90;53.23
27840;BME280;15207;42.182;24.308;2022-10-31T02:09:51;99482.91;;;16.92;52.96
27840;BME280;15207;42.182;24.308;2022-10-31T02:12:19;99476.53;;;17.01;52.63
27840;BME280;15207;42.182;24.308;2022-10-31T02:14:46;99483.09;;;16.99;52.90
27840;BME280;15207;42.182;24.308;2022-10-31T02:17:11;99483.66;;;17.02;52.49
27840;BME280;15207;42.182;24.308;2022-10-31T02:22:27;99487.69;;;16.98;52.61
27840;BME280;15207;42.182;24.308;2022-10-31T02:33:07;99479.56;;;16.98;51.16
27840;BME280;15207;42.182;24.308;2022-10-31T02:43:36;99496.22;;;17.12;51.31
27840;BME280;15207;42.182;24.308;2022-10-31T02:46:20;99498.63;;;17.15;51.50
27840;BME280;15207;42.182;24.308;2022-10-31T02:48:52;99499.88;;;17.21;51.42
27840;BME280;15207;42.182;24.308;2022-10-31T02:51:20;99496.66;;;17.25;50.87
27840;BME280;15207;42.182;24.308;2022-10-31T02:53:46;99489.06;;;17.29;50.64
27840;BME280;15207;42.182;24.308;2022-10-31T02:56:16;99503.66;;;17.36;50.22
27840;BME280;15207;42.182;24.308;2022-10-31T02:58:52;99499.94;;;17.37;50.75
27840;BME280;15207;42.182;24.308;2022-10-31T03:04:52;99508.59;;;17.14;51.81
27840;BME280;15207;42.182;24.308;2022-10-31T03:07:30;99508.84;;;17.03;52.28
27840;BME280;15207;42.182;24.308;2022-10-31T03:13:05;99504.31;;;17.03;51.84
27840;BME280;15207;42.182;24.308;2022-10-31T03:15:34;99511.97;;;16.90;52.30
27840;BME280;15207;42.182;24.308;2022-10-31T03:18:07;99501.25;;;16.80;52.67
27840;BME280;15207;42.182;24.308;2022-10-31T03:20:37;99505.66;;;16.81;52.96
27840;BME280;15207;42.182;24.308;2022-10-31T03:23:07;99512.91;;;16.81;52.87
27840;BME280;15207;42.182;24.308;2022-10-31T03:25:35;99518.06;;;16.74;53.39
27840;BME280;15207;42.182;24.308;2022-10-31T03:28:03;99517.94;;;16.75;53.47
27840;BME280;15207;42.182;24.308;2022-10-31T03:30:30;99520.72;;;16.84;53.62
27840;BME280;15207;42.182;24.308;2022-10-31T03:32:58;99518.94;;;16.74;53.36
27840;BME280;15207;42.182;24.308;2022-10-31T03:35:25;99511.22;;;16.79;54.20
27840;BME280;15207;42.182;24.308;2022-10-31T03:37:54;99517.28;;;16.82;53.70
27840;BME280;15207;42.182;24.308;2022-10-31T03:40:21;99522.03;;;16.79;53.06
27840;BME280;15207;42.182;24.308;2022-10-31T03:43:00;99519.53;;;16.86;53.01
27840;BME280;15207;42.182;24.308;2022-10-31T03:45:30;99517.50;;;16.88;53.10
27840;BME280;15207;42.182;24.308;2022-10-31T03:47:58;99525.25;;;16.83;52.84
27840;BME280;15207;42.182;24.308;2022-10-31T03:50:24;99524.31;;;16.92;52.38
27840;BME280;15207;42.182;24.308;2022-10-31T03:53:02;99519.06;;;16.91;52.46
27840;BME280;15207;42.182;24.308;2022-10-31T03:58:05;99515.97;;;16.86;52.35
27840;BME280;15207;42.182;24.308;2022-10-31T04:00:34;99519.91;;;16.91;51.66
27840;BME280;15207;42.182;24.308;2022-10-31T04:03:04;99527.88;;;16.93;51.72
27840;BME280;15207;42.182;24.308;2022-10-31T04:05:31;99516.91;;;16.95;51.33
27840;BME280;15207;42.182;24.308;2022-10-31T04:07:58;99520.94;;;16.90;51.80
27840;BME280;15207;42.182;24.308;2022-10-31T04:10:27;99523.50;;;16.92;51.83
27840;BME280;15207;42.182;24.308;2022-10-31T04:13:03;99530.97;;;16.98;52.11
27840;BME280;15207;42.182;24.308;2022-10-31T04:15:31;99534.50;;;16.99;51.66
27840;BME280;15207;42.182;24.308;2022-10-31T04:17:59;99533.59;;;16.90;51.85
27840;BME280;15207;42.182;24.308;2022-10-31T04:20:35;99529.19;;;16.89;52.09
27840;BME280;15207;42.182;24.308;2022-10-31T04:23:02;99534.69;;;16.79;52.34
27840;BME280;15207;42.182;24.308;2022-10-31T04:25:28;99551.91;;;16.78;52.31
27840;BME280;15207;42.182;24.308;2022-10-31T04:27:53;99541.63;;;16.82;52.52
27840;BME280;15207;42.182;24.308;2022-10-31T04:30:19;99552.69;;;16.70;52.81
27840;BME280;15207;42.182;24.308;2022-10-31T04:32:44;99550.78;;;16.62;52.61
27840;BME280;15207;42.182;24.308;2022-10-31T04:35:10;99561.91;;;16.59;53.00
27840;BME280;15207;42.182;24.308;2022-10-31T04:37:35;99569.16;;;16.59;53.18
27840;BME280;15207;42.182;24.308;2022-10-31T04:40:00;99566.22;;;16.52;53.54
27840;BME280;15207;42.182;24.308;2022-10-31T04:42:29;99577.13;;;16.42;53.62
27840;BME280;15207;42.182;24.308;2022-10-31T04:44:55;99575.72;;;16.38;53.53
27840;BME280;15207;42.182;24.308;2022-10-31T04:47:20;99578.84;;;16.33;53.93
27840;BME280;15207;42.182;24.308;2022-10-31T04:49:46;99578.94;;;16.23;53.94
27840;BME280;15207;42.182;24.308;2022-10-31T04:52:11;99582.53;;;16.14;54.44
27840;BME280;15207;42.182;24.308;2022-10-31T04:54:37;99577.00;;;16.16;54.59
27840;BME280;15207;42.182;24.308;2022-10-31T04:57:02;99582.41;;;16.16;54.63
27840;BME280;15207;42.182;24.308;2022-10-31T04:59:28;99587.84;;;16.06;54.91
27840;BME280;15207;42.182;24.308;2022-10-31T05:01:53;99591.88;;;16.02;55.52
27840;BME280;15207;42.182;24.308;2022-10-31T05:04:19;99587.31;;;15.92;56.12
27840;BME280;15207;42.182;24.308;2022-10-31T05:06:45;99594.63;;;15.82;57.37
27840;BME280;15207;42.182;24.308;2022-10-31T05:09:11;99603.41;;;15.84;56.57
27840;BME280;15207;42.182;24.308;2022-10-31T05:11:36;99599.16;;;15.81;56.90
27840;BME280;15207;42.182;24.308;2022-10-31T05:14:02;99605.81;;;15.87;56.73
27840;BME280;15207;42.182;24.308;2022-10-31T05:16:28;99601.13;;;15.89;57.41
27840;BME280;15207;42.182;24.308;2022-10-31T05:18:53;99604.34;;;15.93;57.18
27840;BME280;15207;42.182;24.308;2022-10-31T05:21:19;99604.09;;;15.96;56.69
27840;BME280;15207;42.182;24.308;2022-10-31T05:23:45;99613.06;;;15.96;57.36
27840;BME280;15207;42.182;24.308;2022-10-31T05:26:10;99619.00;;;16.00;56.84
27840;BME280;15207;42.182;24.308;2022-10-31T05:28:36;99618.16;;;15.99;57.95
27840;BME280;15207;42.182;24.308;2022-10-31T05:31:01;99619.41;;;16.05;57.85
27840;BME280;15207;42.182;24.308;2022-10-31T05:33:27;99623.28;;;16.03;58.02
27840;BME280;15207;42.182;24.308;2022-10-31T05:35:52;99629.34;;;16.05;58.53
27840;BME280;15207;42.182;24.308;2022-10-31T05:38:18;99626.38;;;16.08;58.02
27840;BME280;15207;42.182;24.308;2022-10-31T05:40:43;99626.91;;;16.11;58.38
27840;BME280;15207;42.182;24.308;2022-10-31T05:43:09;99636.81;;;16.21;58.07
27840;BME280;15207;42.182;24.308;2022-10-31T05:45:34;99635.38;;;16.26;57.33
27840;BME280;15207;42.182;24.308;2022-10-31T05:48:01;99637.00;;;16.37;56.80
27840;BME280;15207;42.182;24.308;2022-10-31T05:50:29;99641.63;;;16.55;56.02
27840;BME280;15207;42.182;24.308;2022-10-31T05:53:00;99649.50;;;16.66;55.22
27840;BME280;15207;42.182;24.308;2022-10-31T05:55:26;99646.19;;;16.73;54.91
27840;BME280;15207;42.182;24.308;2022-10-31T05:57:53;99655.31;;;16.72;55.30
27840;BME280;15207;42.182;24.308;2022-10-31T06:00:19;99656.22;;;16.81;54.74
27840;BME280;15207;42.182;24.308;2022-10-31T06:02:45;99649.28;;;16.78;54.66
27840;BME280;15207;42.182;24.308;2022-10-31T06:05:11;99660.09;;;16.78;55.09
27840;BME280;15207;42.182;24.308;2022-10-31T06:07:37;99656.63;;;16.86;55.08
27840;BME280;15207;42.182;24.308;2022-10-31T06:10:04;99663.13;;;16.93;54.55
27840;BME280;15207;42.182;24.308;2022-10-31T06:12:29;99658.41;;;16.95;54.70
27840;BME280;15207;42.182;24.308;2022-10-31T06:14:55;99659.06;;;17.07;53.66
27840;BME280;15207;42.182;24.308;2022-10-31T06:17:21;99674.63;;;17.31;53.42
27840;BME280;15207;42.182;24.308;2022-10-31T06:19:46;99666.28;;;17.43;52.69
27840;BME280;15207;42.182;24.308;2022-10-31T06:22:12;99667.50;;;17.49;52.39
27840;BME280;15207;42.182;24.308;2022-10-31T06:24:38;99654.63;;;17.69;52.13
27840;BME280;15207;42.182;24.308;2022-10-31T06:27:04;99663.84;;;17.84;52.15
27840;BME280;15207;42.182;24.308;2022-10-31T06:29:29;99657.13;;;17.97;51.74
27840;BME280;15207;42.182;24.308;2022-10-31T06:31:55;99665.91;;;18.17;51.66
27840;BME280;15207;42.182;24.308;2022-10-31T06:34:21;99667.16;;;18.31;51.20
27840;BME280;15207;42.182;24.308;2022-10-31T06:36:47;99670.31;;;18.53;50.36
27840;BME280;15207;42.182;24.308;2022-10-31T06:39:14;99663.38;;;18.67;50.22
27840;BME280;15207;42.182;24.308;2022-10-31T06:41:40;99670.00;;;18.81;50.15
27840;BME280;15207;42.182;24.308;2022-10-31T06:44:07;99674.94;;;18.94;49.79
27840;BME280;15207;42.182;24.308;2022-10-31T06:46:33;99672.47;;;19.09;49.06
27840;BME280;15207;42.182;24.308;2022-10-31T06:49:00;99680.13;;;19.31;49.06
27840;BME280;15207;42.182;24.308;2022-10-31T06:51:26;99667.72;;;19.36;48.09
27840;BME280;15207;42.182;24.308;2022-10-31T06:53:52;99677.03;;;19.50;47.92
27840;BME280;15207;42.182;24.308;2022-10-31T06:56:17;99670.78;;;19.58;48.06
27840;BME280;15207;42.182;24.308;2022-10-31T06:58:42;99674.31;;;19.67;47.50
27840;BME280;15207;42.182;24.308;2022-10-31T07:01:08;99672.44;;;19.84;47.47
27840;BME280;15207;42.182;24.308;2022-10-31T07:03:33;99672.09;;;19.79;47.02
27840;BME280;15207;42.182;24.308;2022-10-31T07:05:59;99665.81;;;19.87;47.16
27840;BME280;15207;42.182;24.308;2022-10-31T07:08:25;99665.47;;;19.98;47.16
27840;BME280;15207;42.182;24.308;2022-10-31T07:10:53;99663.88;;;20.12;46.56
27840;BME280;15207;42.182;24.308;2022-10-31T07:13:18;99664.50;;;20.22;46.88
27840;BME280;15207;42.182;24.308;2022-10-31T07:15:48;99660.16;;;20.45;46.48
27840;BME280;15207;42.182;24.308;2022-10-31T07:18:14;99663.72;;;20.54;46.18
27840;BME280;15207;42.182;24.308;2022-10-31T07:20:39;99666.75;;;20.59;45.77
27840;BME280;15207;42.182;24.308;2022-10-31T07:23:05;99660.66;;;20.80;45.70
27840;BME280;15207;42.182;24.308;2022-10-31T07:25:30;99654.34;;;20.88;45.68
27840;BME280;15207;42.182;24.308;2022-10-31T07:27:56;99645.81;;;20.91;45.50
27840;BME280;15207;42.182;24.308;2022-10-31T07:30:22;99655.44;;;21.02;45.29
27840;BME280;15207;42.182;24.308;2022-10-31T07:32:49;99655.81;;;20.99;44.52
27840;BME280;15207;42.182;24.308;2022-10-31T07:35:23;99652.56;;;21.04;44.63
27840;BME280;15207;42.182;24.308;2022-10-31T07:37:49;99658.38;;;21.16;44.68
27840;BME280;15207;42.182;24.308;2022-10-31T07:40:15;99661.13;;;21.39;44.47
27840;BME280;15207;42.182;24.308;2022-10-31T07:42:43;99668.28;;;21.55;43.91
27840;BME280;15207;42.182;24.308;2022-10-31T07:45:11;99666.41;;;21.56;43.58
27840;BME280;15207;42.182;24.308;2022-10-31T07:47:55;99661.28;;;21.76;43.57
27840;BME280;15207;42.182;24.308;2022-10-31T07:50:23;99662.44;;;22.12;42.07
27840;BME280;15207;42.182;24.308;2022-10-31T07:52:58;99667.88;;;22.42;41.72
27840;BME280;15207;42.182;24.308;2022-10-31T07:55:24;99656.28;;;22.70;40.68
27840;BME280;15207;42.182;24.308;2022-10-31T07:58:01;99657.41;;;22.97;40.74
27840;BME280;15207;42.182;24.308;2022-10-31T08:00:27;99646.28;;;23.21;40.17
27840;BME280;15207;42.182;24.308;2022-10-31T08:03:00;99646.06;;;23.44;39.95
27840;BME280;15207;42.182;24.308;2022-10-31T08:05:26;99652.78;;;23.70;39.56
27840;BME280;15207;42.182;24.308;2022-10-31T08:07:53;99648.75;;;23.66;39.58
27840;BME280;15207;42.182;24.308;2022-10-31T08:10:19;99652.22;;;23.82;39.16
27840;BME280;15207;42.182;24.308;2022-10-31T08:12:45;99656.38;;;24.06;38.51
27840;BME280;15207;42.182;24.308;2022-10-31T08:15:10;99651.19;;;24.11;38.76
27840;BME280;15207;42.182;24.308;2022-10-31T08:17:37;99642.63;;;23.93;38.54
27840;BME280;15207;42.182;24.308;2022-10-31T08:20:04;99649.91;;;23.78;38.83
27840;BME280;15207;42.182;24.308;2022-10-31T08:22:30;99647.84;;;23.87;38.80
27840;BME280;15207;42.182;24.308;2022-10-31T08:24:55;99643.28;;;23.95;38.46
27840;BME280;15207;42.182;24.308;2022-10-31T08:27:21;99638.00;;;24.28;37.96
27840;BME280;15207;42.182;24.308;2022-10-31T08:29:47;99637.09;;;24.77;36.96
27840;BME280;15207;42.182;24.308;2022-10-31T08:32:12;99637.72;;;24.79;37.15
27840;BME280;15207;42.182;24.308;2022-10-31T08:34:38;99635.06;;;24.92;37.17
27840;BME280;15207;42.182;24.308;2022-10-31T08:37:04;99636.97;;;24.99;36.42
27840;BME280;15207;42.182;24.308;2022-10-31T08:39:29;99635.06;;;24.92;36.13
27840;BME280;15207;42.182;24.308;2022-10-31T08:41:55;99644.13;;;24.86;36.58
27840;BME280;15207;42.182;24.308;2022-10-31T08:44:21;99638.66;;;24.93;36.34
27840;BME280;15207;42.182;24.308;2022-10-31T08:46:47;99643.94;;;25.08;36.25
27840;BME280;15207;42.182;24.308;2022-10-31T08:49:13;99641.41;;;25.27;35.91
27840;BME280;15207;42.182;24.308;2022-10-31T08:51:38;99630.66;;;25.59;35.44
27840;BME280;15207;42.182;24.308;2022-10-31T08:54:05;99645.22;;;25.73;35.16
27840;BME280;15207;42.182;24.308;2022-10-31T08:56:31;99640.53;;;25.87;35.25
27840;BME280;15207;42.182;24.308;2022-10-31T08:58:56;99639.47;;;26.01;34.80
27840;BME280;15207;42.182;24.308;2022-10-31T09:01:22;99635.19;;;26.12;34.64
27840;BME280;15207;42.182;24.308;2022-10-31T09:03:48;99643.00;;;26.15;34.56
27840;BME280;15207;42.182;24.308;2022-10-31T09:06:15;99635.78;;;26.28;33.45
27840;BME280;15207;42.182;24.308;2022-10-31T09:08:41;99641.06;;;26.23;33.51
27840;BME280;15207;42.182;24.308;2022-10-31T09:11:06;99636.25;;;26.11;33.55
27840;BME280;15207;42.182;24.308;2022-10-31T09:13:33;99636.22;;;26.18;34.37
27840;BME280;15207;42.182;24.308;2022-10-31T09:15:58;99631.56;;;26.32;34.06
27840;BME280;15207;42.182;24.308;2022-10-31T09:18:24;99633.84;;;26.42;33.63
27840;BME280;15207;42.182;24.308;2022-10-31T09:20:50;99636.78;;;26.47;33.72
27840;BME280;15207;42.182;24.308;2022-10-31T09:23:18;99640.34;;;26.48;33.17
27840;BME280;15207;42.182;24.308;2022-10-31T09:25:45;99631.63;;;26.64;33.88
27840;BME280;15207;42.182;24.308;2022-10-31T09:28:12;99618.72;;;26.65;33.46
27840;BME280;15207;42.182;24.308;2022-10-31T09:30:39;99632.88;;;26.69;33.23
27840;BME280;15207;42.182;24.308;2022-10-31T09:33:13;99628.13;;;26.83;33.46
27840;BME280;15207;42.182;24.308;2022-10-31T09:35:40;99631.53;;;26.78;33.21
27840;BME280;15207;42.182;24.308;2022-10-31T09:38:12;99623.56;;;26.70;32.59
27840;BME280;15207;42.182;24.308;2022-10-31T09:40:49;99623.06;;;26.79;32.83
27840;BME280;15207;42.182;24.308;2022-10-31T09:43:29;99619.53;;;26.72;32.76
27840;BME280;15207;42.182;24.308;2022-10-31T09:46:07;99625.34;;;26.89;32.85
27840;BME280;15207;42.182;24.308;2022-10-31T09:51:11;99623.03;;;26.93;32.93
27840;BME280;15207;42.182;24.308;2022-10-31T09:53:42;99619.22;;;26.94;32.78
27840;BME280;15207;42.182;24.308;2022-10-31T09:56:12;99618.31;;;27.00;32.52
27840;BME280;15207;42.182;24.308;2022-10-31T09:58:45;99620.47;;;26.91;32.77
27840;BME280;15207;42.182;24.308;2022-10-31T10:04:11;99621.22;;;26.73;32.79
27840;BME280;15207;42.182;24.308;2022-10-31T10:06:43;99623.47;;;26.51;32.64
27840;BME280;15207;42.182;24.308;2022-10-31T10:09:10;99625.34;;;26.50;33.63
27840;BME280;15207;42.182;24.308;2022-10-31T10:20:10;99612.22;;;26.91;32.52
27840;BME280;15207;42.182;24.308;2022-10-31T10:25:23;99604.03;;;26.85;32.19
27840;BME280;15207;42.182;24.308;2022-10-31T10:33:12;99610.53;;;26.97;32.03
27840;BME280;15207;42.182;24.308;2022-10-31T10:35:41;99599.94;;;27.01;32.47
27840;BME280;15207;42.182;24.308;2022-10-31T10:40:33;99605.22;;;27.02;32.66
27840;BME280;15207;42.182;24.308;2022-10-31T10:43:26;99605.22;;;27.02;31.74
27840;BME280;15207;42.182;24.308;2022-10-31T10:51:32;99599.16;;;26.87;32.34
27840;BME280;15207;42.182;24.308;2022-10-31T10:57:21;99604.78;;;26.66;32.64
27840;BME280;15207;42.182;24.308;2022-10-31T10:59:48;99602.09;;;26.53;32.41
27840;BME280;15207;42.182;24.308;2022-10-31T11:02:17;99606.41;;;26.42;32.91
27840;BME280;15207;42.182;24.308;2022-10-31T11:04:43;99595.06;;;26.18;33.10
27840;BME280;15207;42.182;24.308;2022-10-31T11:07:11;99599.34;;;26.07;33.42
27840;BME280;15207;42.182;24.308;2022-10-31T11:09:37;99599.59;;;25.99;33.27
27840;BME280;15207;42.182;24.308;2022-10-31T11:12:10;99594.13;;;25.85;33.91
27840;BME280;15207;42.182;24.308;2022-10-31T11:14:45;99601.13;;;25.74;34.38
27840;BME280;15207;42.182;24.308;2022-10-31T11:17:33;99591.88;;;25.55;34.42
27840;BME280;15207;42.182;24.308;2022-10-31T11:22:38;99581.53;;;25.64;34.25
27840;BME280;15207;42.182;24.308;2022-10-31T11:25:25;99588.06;;;25.63;33.93
27840;BME280;15207;42.182;24.308;2022-10-31T11:28:09;99577.09;;;25.70;34.01
27840;BME280;15207;42.182;24.308;2022-10-31T11:30:44;99563.81;;;25.60;34.41
27840;BME280;15207;42.182;24.308;2022-10-31T11:33:20;99572.28;;;25.58;34.24
27840;BME280;15207;42.182;24.308;2022-10-31T11:35:47;99568.03;;;25.69;34.60
27840;BME280;15207;42.182;24.308;2022-10-31T11:38:17;99572.81;;;25.87;34.39
27840;BME280;15207;42.182;24.308;2022-10-31T11:40:53;99572.16;;;25.99;33.88
27840;BME280;15207;42.182;24.308;2022-10-31T11:43:21;99564.16;;;25.97;33.88
27840;BME280;15207;42.182;24.308;2022-10-31T11:45:47;99563.47;;;26.02;33.75
27840;BME280;15207;42.182;24.308;2022-10-31T11:48:22;99571.31;;;25.98;33.38
27840;BME280;15207;42.182;24.308;2022-10-31T11:50:55;99563.31;;;25.90;33.56
27840;BME280;15207;42.182;24.308;2022-10-31T11:53:33;99560.16;;;25.86;33.51
27840;BME280;15207;42.182;24.308;2022-10-31T11:58:31;99553.03;;;25.79;33.73
27840;BME280;15207;42.182;24.308;2022-10-31T12:00:57;99550.91;;;25.81;33.95
27840;BME280;15207;42.182;24.308;2022-10-31T12:08:31;99552.13;;;25.92;34.20
27840;BME280;15207;42.182;24.308;2022-10-31T12:14:12;99551.97;;;25.80;33.58
27840;BME280;15207;42.182;24.308;2022-10-31T12:22:12;99559.56;;;25.84;34.40
27840;BME280;15207;42.182;24.308;2022-10-31T12:30:13;99549.31;;;26.12;33.43
27840;BME280;15207;42.182;24.308;2022-10-31T12:35:43;99557.94;;;26.15;33.43
27840;BME280;15207;42.182;24.308;2022-10-31T12:43:35;99547.66;;;26.04;33.50
27840;BME280;15207;42.182;24.308;2022-10-31T12:46:02;99549.38;;;25.98;33.43
27840;BME280;15207;42.182;24.308;2022-10-31T12:51:40;99552.19;;;26.31;33.72
27840;BME280;15207;42.182;24.308;2022-10-31T12:56:57;99541.28;;;26.17;33.26
27840;BME280;15207;42.182;24.308;2022-10-31T12:59:40;99547.19;;;26.14;33.71
27840;BME280;15207;42.182;24.308;2022-10-31T13:02:36;99554.81;;;26.05;33.35
27840;BME280;15207;42.182;24.308;2022-10-31T13:07:56;99550.41;;;26.04;33.66
27840;BME280;15207;42.182;24.308;2022-10-31T13:10:27;99553.56;;;26.08;33.44
27840;BME280;15207;42.182;24.308;2022-10-31T13:13:00;99551.19;;;26.11;34.13
27840;BME280;15207;42.182;24.308;2022-10-31T13:15:32;99543.16;;;26.17;33.90
27840;BME280;15207;42.182;24.308;2022-10-31T13:18:06;99539.75;;;26.28;32.88
27840;BME280;15207;42.182;24.308;2022-10-31T13:20:45;99540.81;;;26.27;32.58
27840;BME280;15207;42.182;24.308;2022-10-31T13:23:29;99545.69;;;26.18;32.77
27840;BME280;15207;42.182;24.308;2022-10-31T13:25:56;99542.97;;;26.11;33.56
27840;BME280;15207;42.182;24.308;2022-10-31T13:30:51;99541.97;;;26.06;33.18
27840;BME280;15207;42.182;24.308;2022-10-31T13:36:04;99544.72;;;26.06;33.77
27840;BME280;15207;42.182;24.308;2022-10-31T13:41:31;99545.78;;;25.98;33.97
27840;BME280;15207;42.182;24.308;2022-10-31T13:46:41;99542.50;;;25.75;34.38
27840;BME280;15207;42.182;24.308;2022-10-31T13:54:40;99535.78;;;25.44;35.01
27840;BME280;15207;42.182;24.308;2022-10-31T13:59:56;99538.56;;;25.31;34.70
27840;BME280;15207;42.182;24.308;2022-10-31T14:02:47;99537.06;;;25.35;34.13
27840;BME280;15207;42.182;24.308;2022-10-31T14:07:53;99541.91;;;25.33;34.74
27840;BME280;15207;42.182;24.308;2022-10-31T14:16:00;99547.63;;;25.25;35.81
27840;BME280;15207;42.182;24.308;2022-10-31T14:18:36;99541.53;;;25.16;35.96
27840;BME280;15207;42.182;24.308;2022-10-31T14:23:50;99549.72;;;25.09;36.71
27840;BME280;15207;42.182;24.308;2022-10-31T14:34:32;99548.88;;;24.68;38.22
27840;BME280;15207;42.182;24.308;2022-10-31T14:39:42;99547.34;;;24.52;38.73
27840;BME280;15207;42.182;24.308;2022-10-31T14:45:15;99546.25;;;24.26;39.22
27840;BME280;15207;42.182;24.308;2022-10-31T14:53:02;99540.00;;;23.97;39.76
27840;BME280;15207;42.182;24.308;2022-10-31T14:55:29;99548.78;;;23.85;39.46
27840;BME280;15207;42.182;24.308;2022-10-31T14:58:06;99546.41;;;23.75;39.64
27840;BME280;15207;42.182;24.308;2022-10-31T15:00:33;99551.03;;;23.68;40.29
27840;BME280;15207;42.182;24.308;2022-10-31T15:03:26;99545.84;;;23.51;40.97
27840;BME280;15207;42.182;24.308;2022-10-31T15:05:56;99555.22;;;23.35;40.78
27840;BME280;15207;42.182;24.308;2022-10-31T15:11:20;99557.94;;;23.07;42.20
27840;BME280;15207;42.182;24.308;2022-10-31T15:16:13;99556.44;;;22.82;43.52
27840;BME280;15207;42.182;24.308;2022-10-31T15:18:56;99552.63;;;22.77;42.76
27840;BME280;15207;42.182;24.308;2022-10-31T15:21:24;99556.28;;;22.62;43.44
27840;BME280;15207;42.182;24.308;2022-10-31T15:23:52;99554.97;;;22.43;43.51
27840;BME280;15207;42.182;24.308;2022-10-31T15:26:21;99561.72;;;22.25;43.92
27840;BME280;15207;42.182;24.308;2022-10-31T15:28:57;99562.13;;;22.07;43.51
27840;BME280;15207;42.182;24.308;2022-10-31T15:31:24;99568.25;;;21.79;43.89
27840;BME280;15207;42.182;24.308;2022-10-31T15:33:50;99568.97;;;21.58;44.63
27840;BME280;15207;42.182;24.308;2022-10-31T15:36:22;99566.91;;;21.45;44.85
27840;BME280;15207;42.182;24.308;2022-10-31T15:38:49;99574.25;;;21.44;45.49
27840;BME280;15207;42.182;24.308;2022-10-31T15:41:31;99577.91;;;21.51;45.40